Pollock, LA (71467)

1:20 AM CST on December 06, 2016 (GMT -0600)
RAWS | | Change Station

Elev 230 ft 31.50 °N, 92.46 °W | Updated 48 minutes ago

Overcast
Overcast
49.0 °F
Feels Like 49.0 °F
N
0.0
Wind Variable Wind from North
Gusts 0.0 mph

Today
High -- | Low -- °F
--% Chance of Precip.
Yesterday
High -- | Low -- °F
Precip. -- in
Pressure 29.72 in
Visibility 8.0 miles
Clouds Overcast 600 ft
Dew Point 49.0 °F
Humidity 100%
Rainfall in
Snow Depth Not available.
6:55 AM 5:06 PM
Waxing Crescent, 39% visible
SPECI KESF 060718Z AUTO 25007KT 8SM OVC006 10/10 A2972 RMK AO2 T01000100
Pressure 29.72 in
Visibility 8.0 miles
Clouds Overcast 600 ft
Dew Point 49.0 °F
Humidity 100%
Rainfall in
Snow Depth Not available.
6:55 AM 5:06 PM
Waxing Crescent, 39% visible
SPECI KESF 060718Z AUTO 25007KT 8SM OVC006 10/10 A2972 RMK AO2 T01000100

10-Day Weather Forecast

Almanac

Astronomy

Dec. 06, 2016 Rise Set
Actual Time
Civil Twilight
Nautical Twilight
Astronomical Twilight
Moon
Length of Visible Light
Length of Day
Tomorrow will be .
, % of the Moon is Illuminated

Today's Extremes

State Highs State Lows

Community

WunderPhotos

Upload Photos

1,955,930 photos uploaded!

WunderBlog® & News

Nearby

Air Quality

  Air Quality AQ Index Pollutant
Not available.

Snow Depth

Station Depth Elevation

Earthquake Activity

City Distance Mag. Time & Date
Minimum magnitude displayed is 2.5.

Coastal Water Temperatures

Place Temperature

Stations

Nearby Weather Stations

Station Location Temp. Windchill Dew Point Humidity Wind Precip. Elev Updated Type
                   

Watches & Warnings

There are currently no watches in effect.